Time;durP1;ratioP1;P1;durP2;ratioP2;P2;SDS_P1;SDS_P2;PMS_P1;PMS_P2;Temp;Humidity;BMP_temperature;BMP_pressure;BME280_temperature;BME280_humidity;BME280_pressure;Samples;Min_cycle;Max_cycle;Signal;HPM_P1;HPM_P2
2021/05/21 00:00:22;;;;;;;2.10;1.30;;;13.30;99.90;;;;;;5075209;28;20551;-72
2021/05/21 00:02:48;;;;;;;2.57;1.63;;;13.20;99.90;;;;;;5075308;28;20178;-72
2021/05/21 00:05:14;;;;;;;2.07;1.80;;;13.20;99.90;;;;;;5075385;28;20171;-72
2021/05/21 00:07:40;;;;;;;2.20;1.20;;;13.10;99.90;;;;;;5078251;28;20181;-72
2021/05/21 00:10:06;;;;;;;2.13;1.20;;;13.10;99.90;;;;;;5095304;28;20803;-72
2021/05/21 00:12:32;;;;;;;1.87;1.30;;;13.10;99.90;;;;;;5095715;28;20229;-72
2021/05/21 00:14:57;;;;;;;2.37;1.10;;;13.00;99.90;;;;;;5095127;28;20492;-72
2021/05/21 00:17:23;;;;;;;2.53;1.30;;;12.90;99.90;;;;;;5095408;28;20163;-72
2021/05/21 00:19:49;;;;;;;1.17;1.07;;;12.90;99.90;;;;;;5095230;28;20170;-72
2021/05/21 00:22:14;;;;;;;3.40;1.90;;;12.90;99.90;;;;;;5094945;28;20193;-72
2021/05/21 00:24:40;;;;;;;4.90;1.20;;;12.90;99.90;;;;;;5081466;28;20577;-72
2021/05/21 00:27:05;;;;;;;1.53;1.20;;;12.90;99.90;;;;;;5075284;28;20595;-72
2021/05/21 00:29:31;;;;;;;4.47;1.00;;;12.90;99.90;;;;;;5074624;28;20203;-72
2021/05/21 00:31:56;;;;;;;2.80;1.60;;;12.80;99.90;;;;;;5074393;28;20159;-72
2021/05/21 00:34:22;;;;;;;1.60;1.10;;;12.80;99.90;;;;;;5074625;28;20152;-72
2021/05/21 00:36:47;;;;;;;1.93;1.37;;;12.80;99.90;;;;;;5074746;28;20167;-72
2021/05/21 00:39:13;;;;;;;1.30;1.20;;;12.70;99.90;;;;;;5075094;28;20612;-72
2021/05/21 00:41:38;;;;;;;1.33;1.23;;;12.70;99.90;;;;;;5075541;28;20179;-72
2021/05/21 00:44:04;;;;;;;1.20;1.10;;;12.70;99.90;;;;;;5074390;28;20159;-72
2021/05/21 00:46:30;;;;;;;1.43;1.13;;;12.60;99.90;;;;;;5074269;28;20167;-72
2021/05/21 00:48:55;;;;;;;1.33;0.93;;;12.60;99.90;;;;;;5074341;28;20182;-72
2021/05/21 00:51:21;;;;;;;3.93;1.57;;;12.60;99.90;;;;;;5073690;28;20159;-72
2021/05/21 00:53:48;;;;;;;3.67;1.20;;;12.60;99.90;;;;;;5074048;28;20601;-72
2021/05/21 00:56:14;;;;;;;1.20;1.07;;;12.60;99.90;;;;;;5092745;28;20200;-72
2021/05/21 00:58:40;;;;;;;1.20;1.03;;;12.60;99.90;;;;;;5076333;28;20453;-72
2021/05/21 01:01:05;;;;;;;2.50;1.77;;;12.70;99.90;;;;;;5074070;28;20158;-73
2021/05/21 01:03:31;;;;;;;2.20;1.40;;;12.70;99.90;;;;;;5073971;28;20971;-72
2021/05/21 01:05:57;;;;;;;1.60;1.30;;;12.60;99.90;;;;;;5074110;28;20176;-72
2021/05/21 01:08:22;;;;;;;1.63;1.13;;;12.60;99.90;;;;;;5073904;28;20445;-72
2021/05/21 01:10:48;;;;;;;1.80;1.07;;;12.60;99.90;;;;;;5074564;28;20151;-72
2021/05/21 01:13:14;;;;;;;1.37;1.03;;;12.60;99.90;;;;;;5073742;28;20635;-72
2021/05/21 01:15:41;;;;;;;1.83;1.10;;;12.60;99.90;;;;;;5074271;28;20171;-72
2021/05/21 01:18:09;;;;;;;1.50;1.20;;;12.70;99.90;;;;;;5073692;28;20391;-72
2021/05/21 01:20:36;;;;;;;1.17;1.03;;;12.70;99.90;;;;;;5073506;28;20406;-72
2021/05/21 01:23:03;;;;;;;1.30;1.10;;;12.70;99.90;;;;;;5073704;28;20454;-72
2021/05/21 01:25:29;;;;;;;1.30;1.20;;;12.70;99.90;;;;;;5074044;28;20483;-72
2021/05/21 01:27:56;;;;;;;1.83;1.07;;;12.80;99.90;;;;;;5073448;28;20402;-72
2021/05/21 01:30:22;;;;;;;2.77;1.40;;;12.70;99.90;;;;;;5073596;28;20400;-72
2021/05/21 01:32:48;;;;;;;1.37;1.07;;;12.80;99.90;;;;;;5074042;28;20792;-72
2021/05/21 01:35:17;;;;;;;4.57;1.27;;;12.80;99.90;;;;;;5073199;28;20493;-72
2021/05/21 01:37:44;;;;;;;1.50;0.90;;;12.80;99.90;;;;;;5074030;28;20229;-72
2021/05/21 01:40:11;;;;;;;1.87;1.00;;;12.80;99.90;;;;;;5073853;28;20426;-72
2021/05/21 01:42:37;;;;;;;2.50;1.30;;;12.70;99.90;;;;;;5073207;28;20397;-72
2021/05/21 01:45:04;;;;;;;1.20;1.10;;;12.70;99.90;;;;;;5073200;28;20390;-72
2021/05/21 01:47:30;;;;;;;2.10;1.20;;;12.70;99.90;;;;;;5073142;28;20878;-72
2021/05/21 01:49:56;;;;;;;3.67;1.10;;;12.70;99.90;;;;;;5073490;28;20445;-72
2021/05/21 01:52:22;;;;;;;2.10;0.90;;;12.70;99.90;;;;;;5074410;28;20171;-72
2021/05/21 01:54:48;;;;;;;1.23;1.00;;;12.70;99.90;;;;;;5079334;28;20554;-72
2021/05/21 01:57:13;;;;;;;3.43;1.50;;;12.70;99.90;;;;;;5093288;28;20151;-72
2021/05/21 01:59:39;;;;;;;3.73;1.20;;;12.60;99.90;;;;;;5093240;28;20288;-72
2021/05/21 02:02:06;;;;;;;1.50;1.07;;;12.60;99.90;;;;;;5093353;28;20155;-72
2021/05/21 02:07:13;;;;;;;1.70;1.03;;;12.60;99.90;;;;;;5103598;27;20515;-72
2021/05/21 02:09:58;;;;;;;2.20;1.30;;;12.50;99.90;;;;;;5090914;28;20412;-72
2021/05/21 02:12:24;;;;;;;1.90;1.20;;;12.50;99.90;;;;;;5090388;28;20724;-72
2021/05/21 02:14:51;;;;;;;3.17;1.87;;;12.50;99.90;;;;;;5090573;28;20402;-72
2021/05/21 02:17:17;;;;;;;3.20;1.40;;;12.40;99.90;;;;;;5090543;28;20393;-72
2021/05/21 02:19:42;;;;;;;4.90;1.37;;;12.40;99.90;;;;;;5090272;28;20389;-72
2021/05/21 02:22:08;;;;;;;1.90;1.20;;;12.40;99.90;;;;;;5090905;28;20151;-72
2021/05/21 02:24:34;;;;;;;2.70;1.87;;;12.40;99.90;;;;;;5090066;28;20198;-72
2021/05/21 02:27:00;;;;;;;2.17;1.20;;;12.30;99.90;;;;;;5090045;28;20535;-72
2021/05/21 02:29:26;;;;;;;1.70;1.27;;;12.30;99.90;;;;;;5090171;28;20950;-72
2021/05/21 02:31:52;;;;;;;1.43;1.00;;;12.30;99.90;;;;;;5090085;28;20447;-72
2021/05/21 02:34:17;;;;;;;1.70;0.90;;;12.30;99.90;;;;;;5089698;28;20163;-72
2021/05/21 02:36:43;;;;;;;1.60;1.20;;;12.30;99.90;;;;;;5089908;28;20593;-72
2021/05/21 02:39:08;;;;;;;1.27;1.17;;;12.30;99.90;;;;;;5089834;28;20179;-72
2021/05/21 02:41:34;;;;;;;2.50;1.30;;;12.30;99.90;;;;;;5089839;28;20252;-72
2021/05/21 02:44:00;;;;;;;2.80;2.07;;;12.30;99.90;;;;;;5089858;28;20166;-72
2021/05/21 02:46:26;;;;;;;1.53;1.00;;;12.20;99.90;;;;;;5089496;28;20194;-73
2021/05/21 02:48:51;;;;;;;1.93;1.20;;;12.30;99.90;;;;;;5090165;28;20253;-72
2021/05/21 02:51:17;;;;;;;4.23;1.30;;;12.30;99.90;;;;;;5090113;28;20228;-72
2021/05/21 02:53:42;;;;;;;3.23;1.30;;;12.30;99.90;;;;;;5089927;28;20170;-72
2021/05/21 02:56:08;;;;;;;1.63;1.30;;;12.30;99.90;;;;;;5089569;28;20609;-72
2021/05/21 02:58:34;;;;;;;2.60;1.40;;;12.30;99.90;;;;;;5089850;28;20211;-68
2021/05/21 03:00:59;;;;;;;2.30;1.00;;;12.30;99.90;;;;;;5089485;28;20238;-68
2021/05/21 03:03:25;;;;;;;2.47;1.20;;;12.40;99.90;;;;;;5089377;28;20249;-68
2021/05/21 03:05:50;;;;;;;3.03;1.03;;;12.40;99.90;;;;;;5077418;28;20294;-68
2021/05/21 03:08:16;;;;;;;2.10;1.20;;;12.40;99.90;;;;;;5069359;28;20251;-68
2021/05/21 03:10:41;;;;;;;3.13;1.10;;;12.40;99.90;;;;;;5068956;28;20531;-68
2021/05/21 03:13:07;;;;;;;3.30;1.10;;;12.50;99.90;;;;;;5068940;28;20155;-68
2021/05/21 03:15:33;;;;;;;1.90;1.20;;;12.50;99.90;;;;;;5080003;28;20175;-68
2021/05/21 03:17:59;;;;;;;1.50;1.00;;;12.50;99.90;;;;;;5078727;28;20160;-68
2021/05/21 03:20:26;;;;;;;2.50;1.20;;;12.50;99.90;;;;;;5075592;28;20152;-68
2021/05/21 03:22:51;;;;;;;1.20;1.10;;;12.50;99.90;;;;;;5075973;28;20910;-68
2021/05/21 03:25:17;;;;;;;3.13;1.43;;;12.60;99.90;;;;;;5075344;28;20481;-68
2021/05/21 03:27:42;;;;;;;4.10;1.40;;;12.60;99.90;;;;;;5075286;28;20210;-68
2021/05/21 03:30:10;;;;;;;2.23;1.27;;;12.60;99.90;;;;;;5075396;28;20156;-68
2021/05/21 03:32:36;;;;;;;1.20;0.87;;;12.70;99.90;;;;;;5075423;28;20183;-68
2021/05/21 03:35:02;;;;;;;2.30;1.30;;;12.70;99.90;;;;;;5068331;28;21041;-68
2021/05/21 03:37:27;;;;;;;4.67;1.33;;;12.70;99.90;;;;;;5055489;28;20529;-68
2021/05/21 03:39:54;;;;;;;2.77;1.20;;;12.70;99.90;;;;;;5055188;28;20394;-68
2021/05/21 03:42:19;;;;;;;2.20;1.30;;;12.70;99.90;;;;;;5055178;28;20156;-68
2021/05/21 03:44:45;;;;;;;1.63;1.13;;;12.70;99.90;;;;;;5055026;28;20749;-68
2021/05/21 03:47:11;;;;;;;2.40;0.80;;;12.70;99.90;;;;;;5055347;28;20179;-68
2021/05/21 03:49:37;;;;;;;3.50;1.17;;;12.60;99.90;;;;;;5066683;28;20579;-68
2021/05/21 03:52:03;;;;;;;1.83;1.63;;;12.60;99.90;;;;;;5075343;28;20394;-68
2021/05/21 03:54:29;;;;;;;3.17;1.87;;;12.60;99.90;;;;;;5074899;28;20410;-69
2021/05/21 03:56:54;;;;;;;1.93;1.40;;;12.60;99.90;;;;;;5074956;28;20202;-68
2021/05/21 03:59:20;;;;;;;3.10;1.40;;;12.60;99.90;;;;;;5074812;28;20226;-68
2021/05/21 04:01:47;;;;;;;1.90;1.13;;;12.50;99.90;;;;;;5075109;28;20190;-68
2021/05/21 04:04:13;;;;;;;3.07;1.13;;;12.50;99.90;;;;;;5074847;28;20402;-68
2021/05/21 04:06:39;;;;;;;1.10;1.00;;;12.50;99.90;;;;;;5075360;28;20920;-68
2021/05/21 04:09:06;;;;;;;3.60;1.43;;;12.40;99.90;;;;;;5074653;28;20156;-68
2021/05/21 04:11:37;;;;;;;2.37;1.13;;;12.40;99.90;;;;;;5074815;28;20152;-68
2021/05/21 04:14:04;;;;;;;1.90;1.43;;;12.40;99.90;;;;;;5074594;28;20899;-68
2021/05/21 04:16:30;;;;;;;1.40;1.03;;;12.30;99.90;;;;;;5074636;28;20406;-68
2021/05/21 04:18:56;;;;;;;1.53;0.90;;;12.40;99.90;;;;;;5074902;28;20476;-68
2021/05/21 04:21:21;;;;;;;1.83;1.40;;;12.40;99.90;;;;;;5075060;28;20911;-68
2021/05/21 04:23:48;;;;;;;2.33;1.30;;;12.40;99.90;;;;;;5074342;28;20610;-68
2021/05/21 04:26:15;;;;;;;3.10;1.23;;;12.40;99.90;;;;;;5074335;28;20193;-68
2021/05/21 04:28:41;;;;;;;1.27;1.10;;;12.50;99.90;;;;;;5073418;28;20390;-68
2021/05/21 04:31:07;;;;;;;2.13;1.50;;;12.50;99.90;;;;;;5074538;28;20402;-68
2021/05/21 04:33:32;;;;;;;2.23;1.20;;;12.70;99.90;;;;;;5074829;28;20480;-68
2021/05/21 04:35:59;;;;;;;4.90;1.30;;;12.70;99.90;;;;;;5074166;28;20442;-68
2021/05/21 04:38:25;;;;;;;2.97;1.50;;;12.80;99.90;;;;;;5074206;28;20159;-68
2021/05/21 04:40:50;;;;;;;2.27;1.20;;;12.80;99.90;;;;;;5073845;28;20566;-68
2021/05/21 04:43:23;;;;;;;2.20;1.97;;;12.90;99.90;;;;;;5074283;28;20160;-68
2021/05/21 04:45:49;;;;;;;2.20;1.20;;;12.90;99.90;;;;;;5073942;28;20266;-68
2021/05/21 04:48:15;;;;;;;2.03;1.20;;;13.00;99.90;;;;;;5074655;28;20429;-68
2021/05/21 04:50:41;;;;;;;3.17;1.37;;;13.00;99.90;;;;;;5074600;28;20630;-68
2021/05/21 04:53:06;;;;;;;2.57;1.40;;;13.00;99.90;;;;;;5073822;28;20390;-68
2021/05/21 04:55:32;;;;;;;2.30;1.17;;;13.00;99.90;;;;;;5073916;28;20239;-68
2021/05/21 04:57:57;;;;;;;2.23;1.00;;;13.10;99.90;;;;;;5073486;28;20175;-68
2021/05/21 05:00:23;;;;;;;2.63;1.43;;;13.20;99.90;;;;;;5073610;28;20195;-68
2021/05/21 05:02:49;;;;;;;1.30;1.20;;;13.20;99.90;;;;;;5074332;28;20167;-69
2021/05/21 05:05:14;;;;;;;1.60;1.33;;;13.20;99.90;;;;;;5063424;28;20660;-68
2021/05/21 05:07:40;;;;;;;3.83;1.70;;;13.30;99.90;;;;;;5053884;28;20235;-68
2021/05/21 05:10:08;;;;;;;3.17;1.17;;;13.40;99.90;;;;;;5053704;28;20149;-68
2021/05/21 05:12:34;;;;;;;1.53;0.80;;;13.40;99.90;;;;;;5053504;28;20258;-68
2021/05/21 05:14:59;;;;;;;2.50;1.20;;;13.50;99.90;;;;;;5068297;28;20974;-68
2021/05/21 05:17:25;;;;;;;2.70;1.20;;;13.50;99.90;;;;;;5073735;28;20203;-68
2021/05/21 05:19:50;;;;;;;2.13;1.17;;;13.50;99.90;;;;;;5074041;28;20542;-68
2021/05/21 05:22:16;;;;;;;31.67;1.67;;;13.60;99.90;;;;;;5073470;28;20168;-68
2021/05/21 05:24:41;;;;;;;2.50;1.37;;;13.70;99.90;;;;;;5073316;28;20558;-68
2021/05/21 05:27:07;;;;;;;4.40;1.67;;;13.80;99.90;;;;;;5073058;28;20282;-68
2021/05/21 05:29:34;;;;;;;3.43;1.20;;;13.90;99.90;;;;;;5073281;28;20182;-68
2021/05/21 05:32:01;;;;;;;2.20;0.97;;;14.00;99.90;;;;;;5073733;28;20688;-68
2021/05/21 05:34:30;;;;;;;2.23;1.37;;;14.10;99.90;;;;;;5067317;28;20975;-68
2021/05/21 05:36:55;;;;;;;3.00;1.30;;;14.10;99.90;;;;;;5053346;28;20402;-68
2021/05/21 05:39:21;;;;;;;3.33;1.00;;;14.10;99.90;;;;;;5053242;28;20792;-68
2021/05/21 05:41:49;;;;;;;1.70;1.10;;;14.20;99.90;;;;;;5052898;28;20303;-68
2021/05/21 05:44:17;;;;;;;2.50;1.37;;;14.30;99.90;;;;;;5053142;28;20392;-68
2021/05/21 05:46:42;;;;;;;1.40;1.30;;;14.50;99.90;;;;;;5053468;28;20443;-68
2021/05/21 05:49:08;;;;;;;1.67;1.10;;;14.40;99.90;;;;;;5069411;28;20516;-68
2021/05/21 05:51:33;;;;;;;4.47;1.40;;;14.40;99.90;;;;;;5073093;28;20155;-68
2021/05/21 05:53:59;;;;;;;1.27;1.13;;;14.30;99.90;;;;;;5072855;28;20252;-68
2021/05/21 05:56:25;;;;;;;2.90;1.00;;;14.40;99.90;;;;;;5072902;28;20235;-68
2021/05/21 05:58:50;;;;;;;3.23;1.20;;;14.40;99.90;;;;;;5073083;28;20192;-68
2021/05/21 06:01:16;;;;;;;5.20;1.67;;;14.50;99.90;;;;;;5073486;28;20168;-68
2021/05/21 06:03:41;;;;;;;3.90;1.83;;;14.50;99.90;;;;;;5073016;28;20183;-68
2021/05/21 06:06:07;;;;;;;3.20;1.50;;;14.50;99.90;;;;;;5072444;28;20630;-68
2021/05/21 06:08:34;;;;;;;1.23;1.10;;;14.60;99.90;;;;;;5072833;28;20161;-68
2021/05/21 06:10:59;;;;;;;2.13;1.33;;;14.60;99.90;;;;;;5072776;28;20255;-68
2021/05/21 06:13:27;;;;;;;8.37;1.50;;;14.70;99.90;;;;;;5072747;28;20936;-68
2021/05/21 06:15:53;;;;;;;1.30;1.20;;;14.70;99.90;;;;;;5074916;28;20169;-69
2021/05/21 06:18:19;;;;;;;3.83;1.20;;;14.70;99.90;;;;;;5074013;28;20400;-68
2021/05/21 06:20:45;;;;;;;7.00;1.50;;;14.70;99.90;;;;;;5072707;28;20408;-68
2021/05/21 06:23:12;;;;;;;4.00;1.73;;;14.70;99.90;;;;;;5072851;28;20835;-68
2021/05/21 06:25:52;;;;;;;1.70;1.13;;;14.70;99.90;;;;;;5072631;28;20447;-68
2021/05/21 06:28:21;;;;;;;3.00;1.70;;;14.90;99.90;;;;;;5073502;28;20453;-68
2021/05/21 06:30:47;;;;;;;2.10;1.60;;;15.10;99.90;;;;;;5074730;28;20401;-68
2021/05/21 06:33:13;;;;;;;2.23;1.57;;;15.20;99.90;;;;;;5072954;28;20429;-68
2021/05/21 06:35:39;;;;;;;3.70;1.50;;;15.30;99.90;;;;;;5053744;28;20447;-68
2021/05/21 06:38:05;;;;;;;1.70;1.23;;;15.30;99.90;;;;;;5052643;28;20936;-68
2021/05/21 06:40:31;;;;;;;2.80;1.77;;;15.40;99.90;;;;;;5071651;28;20183;-68
2021/05/21 06:42:57;;;;;;;5.10;1.20;;;15.50;99.90;;;;;;5073464;28;20733;-68
2021/05/21 06:45:23;;;;;;;6.97;1.20;;;15.50;99.90;;;;;;5074726;28;20454;-69
2021/05/21 06:47:49;;;;;;;2.43;1.43;;;15.50;99.90;;;;;;5072901;28;20227;-68
2021/05/21 06:50:14;;;;;;;3.30;1.20;;;15.40;99.90;;;;;;5072499;28;20397;-68
2021/05/21 06:52:40;;;;;;;7.60;1.80;;;15.40;99.90;;;;;;5074161;28;20163;-68
2021/05/21 06:55:07;;;;;;;5.87;1.40;;;15.50;99.90;;;;;;5076246;28;20618;-68
2021/05/21 06:57:33;;;;;;;2.63;1.23;;;15.60;99.90;;;;;;5076220;28;20534;-68
2021/05/21 06:59:58;;;;;;;1.67;1.40;;;15.70;99.90;;;;;;5077775;28;20413;-69
2021/05/21 07:02:26;;;;;;;3.70;1.40;;;15.80;99.90;;;;;;5076347;28;20580;-68
2021/05/21 07:04:52;;;;;;;2.40;1.57;;;15.90;99.90;;;;;;5063891;28;20172;-68
2021/05/21 07:07:18;;;;;;;2.30;1.27;;;16.00;99.90;;;;;;5056315;28;20399;-68
2021/05/21 07:09:46;;;;;;;3.97;1.60;;;16.00;99.90;;;;;;5055959;28;20705;-68
2021/05/21 07:12:12;;;;;;;3.03;1.30;;;16.00;99.90;;;;;;5055794;28;20179;-68
2021/05/21 07:14:38;;;;;;;4.13;1.47;;;16.20;99.90;;;;;;5077265;28;20431;-68
2021/05/21 07:17:04;;;;;;;2.00;1.40;;;16.40;99.90;;;;;;5076089;28;20181;-68
2021/05/21 07:19:30;;;;;;;2.70;1.27;;;16.70;99.90;;;;;;5075814;28;20536;-69
2021/05/21 07:21:55;;;;;;;4.40;1.87;;;16.90;99.90;;;;;;5075754;28;20585;-69
2021/05/21 07:24:21;;;;;;;7.53;1.83;;;17.10;98.70;;;;;;5075800;28;20484;-68
2021/05/21 07:26:47;;;;;;;3.00;1.40;;;17.40;99.00;;;;;;5077045;28;20183;-68
2021/05/21 07:29:12;;;;;;;5.37;1.40;;;18.00;97.00;;;;;;5077044;28;20165;-69
2021/05/21 07:31:38;;;;;;;7.40;2.00;;;19.10;93.80;;;;;;5075626;28;20245;-69
2021/05/21 07:34:03;;;;;;;4.00;1.77;;;20.20;88.40;;;;;;5070293;28;20164;-69
2021/05/21 07:36:31;;;;;;;3.37;1.70;;;21.40;77.60;;;;;;5055769;28;20180;-69
2021/05/21 07:38:58;;;;;;;7.60;2.00;;;22.60;69.80;;;;;;5055612;28;20555;-67
2021/05/21 07:41:25;;;;;;;6.17;1.93;;;23.90;61.50;;;;;;5056026;28;20465;-67
2021/05/21 07:43:52;;;;;;;3.40;1.50;;;25.20;55.80;;;;;;5056461;28;20414;-67
2021/05/21 07:46:20;;;;;;;6.23;1.37;;;26.20;51.20;;;;;;5056143;28;20438;-67
2021/05/21 07:48:46;;;;;;;5.77;1.73;;;26.40;48.30;;;;;;5075228;28;20394;-67
2021/05/21 07:51:11;;;;;;;8.77;2.77;;;25.70;47.30;;;;;;5075110;28;20757;-67
2021/05/21 07:53:37;;;;;;;7.47;2.43;;;25.60;49.60;;;;;;5075674;28;20166;-67
2021/05/21 07:56:04;;;;;;;3.77;1.80;;;25.90;47.70;;;;;;5075895;28;20628;-68
2021/05/21 07:58:30;;;;;;;7.23;2.00;;;26.00;47.10;;;;;;5075770;28;20191;-67
2021/05/21 08:00:57;;;;;;;7.30;1.50;;;26.50;46.00;;;;;;5075065;28;20398;-67
2021/05/21 08:03:22;;;;;;;4.10;1.80;;;27.40;43.90;;;;;;5074740;28;20882;-67
2021/05/21 08:05:48;;;;;;;4.23;1.57;;;28.10;42.70;;;;;;5055262;28;20461;-68
2021/05/21 08:08:20;;;;;;;3.60;1.30;;;28.40;41.70;;;;;;5060014;28;20176;-68
2021/05/21 08:10:46;;;;;;;6.50;2.03;;;28.00;40.10;;;;;;5071267;28;20537;-68
2021/05/21 08:13:11;;;;;;;4.37;1.57;;;27.10;41.70;;;;;;5074921;28;20455;-68
2021/05/21 08:15:37;;;;;;;5.70;1.53;;;26.40;42.30;;;;;;5074089;28;20175;-67
2021/05/21 08:18:03;;;;;;;4.00;1.73;;;25.80;42.90;;;;;;5073729;28;20175;-68
2021/05/21 08:20:29;;;;;;;5.50;1.73;;;25.40;44.90;;;;;;5073632;28;20171;-68
2021/05/21 08:22:55;;;;;;;3.03;1.50;;;25.60;42.70;;;;;;5074958;28;20280;-68
2021/05/21 08:25:22;;;;;;;5.97;1.50;;;25.90;43.60;;;;;;5073372;28;20450;-68
2021/05/21 08:27:48;;;;;;;5.87;2.07;;;26.50;43.00;;;;;;5075767;28;20398;-68
2021/05/21 08:30:14;;;;;;;3.93;1.47;;;26.60;40.50;;;;;;5074270;28;21024;-68
2021/05/21 08:32:39;;;;;;;6.57;2.03;;;25.80;41.50;;;;;;5074338;28;20197;-68
2021/05/21 08:35:05;;;;;;;4.57;1.40;;;25.50;42.50;;;;;;5061175;28;20798;-68
2021/05/21 08:37:31;;;;;;;5.10;1.57;;;25.40;42.80;;;;;;5057907;28;20164;-67
2021/05/21 08:39:57;;;;;;;6.20;1.97;;;25.20;43.00;;;;;;5075388;28;20402;-68
2021/05/21 08:42:24;;;;;;;3.67;1.50;;;26.10;42.30;;;;;;5070740;28;20409;-68
2021/05/21 08:44:52;;;;;;;7.07;1.63;;;27.00;40.30;;;;;;5054476;28;20171;-68
2021/05/21 08:47:18;;;;;;;9.37;2.17;;;28.40;38.90;;;;;;5053977;28;20873;-68
2021/05/21 08:49:44;;;;;;;7.57;2.27;;;30.10;36.40;;;;;;5054048;28;20403;-68
2021/05/21 08:52:09;;;;;;;3.10;1.90;;;31.30;33.10;;;;;;5054366;28;20188;-68
2021/05/21 08:54:36;;;;;;;4.30;1.60;;;32.50;32.10;;;;;;5058325;28;20441;-69
2021/05/21 08:57:06;;;;;;;8.23;2.30;;;33.00;30.90;;;;;;5074862;28;20151;-68
2021/05/21 08:59:31;;;;;;;3.47;2.00;;;33.10;29.80;;;;;;5057045;28;20481;-68
2021/05/21 09:01:58;;;;;;;5.43;2.30;;;32.90;28.50;;;;;;5053681;28;20453;-68
2021/05/21 09:04:35;;;;;;;7.60;2.00;;;31.90;30.00;;;;;;5053996;28;20203;-68
2021/05/21 09:07:01;;;;;;;6.13;2.20;;;30.40;30.70;;;;;;5053501;28;20462;-68
2021/05/21 09:09:29;;;;;;;8.10;2.47;;;28.70;32.60;;;;;;5055100;28;20894;-68
2021/05/21 09:11:55;;;;;;;5.80;1.57;;;27.50;34.40;;;;;;5059622;28;20632;-68
2021/05/21 09:14:21;;;;;;;4.87;1.90;;;27.10;34.30;;;;;;5073559;28;20425;-68
2021/05/21 09:16:48;;;;;;;4.43;1.90;;;26.40;35.20;;;;;;5073155;28;20205;-68
2021/05/21 09:24:39;;;;;;;6.10;1.90;;;26.90;35.10;;;;;;5131672;27;20526;-70
2021/05/21 09:27:06;;;;;;;3.63;2.07;;;27.30;35.80;;;;;;5131581;28;20827;-70
2021/05/21 09:35:15;;;;;;;6.20;1.67;;;28.20;34.90;;;;;;5084679;27;20580;-70
2021/05/21 09:37:43;;;;;;;3.93;1.47;;;28.30;34.30;;;;;;5074751;28;20424;-70
2021/05/21 09:40:12;;;;;;;3.87;1.60;;;28.00;34.20;;;;;;5091149;28;20397;-70
2021/05/21 09:50:41;;;;;;;5.47;2.00;;;27.30;36.40;;;;;;5111139;27;20539;-70
2021/05/21 09:58:34;;;;;;;3.43;1.47;;;26.30;36.00;;;;;;5070344;28;20876;-69
2021/05/21 10:06:18;;;;;;;7.50;1.80;;;25.80;36.30;;;;;;5111484;27;21029;-70
2021/05/21 10:08:47;;;;;;;5.10;1.57;;;25.50;37.40;;;;;;5112692;28;20453;-69
2021/05/21 10:11:14;;;;;;;5.33;2.20;;;25.20;37.10;;;;;;5111161;28;20543;-69
2021/05/21 10:13:45;;;;;;;4.60;1.97;;;25.00;38.90;;;;;;5111062;28;20412;-69
2021/05/21 10:16:12;;;;;;;6.20;1.83;;;25.00;38.70;;;;;;5111168;28;20880;-69
2021/05/21 10:18:42;;;;;;;3.97;1.90;;;25.00;38.90;;;;;;5110931;28;20497;-69
2021/05/21 10:21:09;;;;;;;6.50;1.57;;;25.00;38.80;;;;;;5096176;28;20416;-70
2021/05/21 10:23:38;;;;;;;5.30;2.30;;;24.90;38.70;;;;;;5091402;28;20454;-69
2021/05/21 10:26:16;;;;;;;3.60;1.90;;;24.70;37.90;;;;;;5091215;28;20614;-69
2021/05/21 10:28:45;;;;;;;11.17;2.40;;;24.60;39.80;;;;;;5091059;28;20411;-69
2021/05/21 10:31:12;;;;;;;7.00;2.07;;;24.40;38.40;;;;;;5091066;28;20401;-69
2021/05/21 10:33:39;;;;;;;6.87;2.40;;;24.20;38.40;;;;;;5110617;28;20416;-69
2021/05/21 10:36:28;;;;;;;6.57;2.00;;;23.90;38.70;;;;;;5112119;28;20400;-69
2021/05/21 10:44:37;;;;;;;5.27;2.80;;;23.00;40.10;;;;;;5090954;28;20498;-69
2021/05/21 10:47:23;;;;;;;4.97;1.70;;;22.80;41.40;;;;;;5090742;28;20848;-69
2021/05/21 10:55:46;;;;;;;4.60;2.10;;;21.90;42.30;;;;;;5092947;27;20560;-68
2021/05/21 10:58:27;;;;;;;13.87;3.30;;;21.60;42.70;;;;;;5089939;28;20389;-69
2021/05/21 11:01:15;;;;;;;5.10;1.90;;;21.40;42.80;;;;;;5090722;28;20468;-68
2021/05/21 11:09:29;;;;;;;5.60;2.00;;;21.10;43.20;;;;;;5090850;28;20564;-69
2021/05/21 11:22:27;;;;;;;6.20;2.60;;;20.90;42.80;;;;;;5111317;27;20517;-68
2021/05/21 11:24:57;;;;;;;5.40;2.20;;;20.30;43.30;;;;;;5111165;28;20388;-68
2021/05/21 11:27:23;;;;;;;4.40;2.00;;;20.30;43.80;;;;;;5110157;28;20394;-68
2021/05/21 11:29:50;;;;;;;5.13;2.00;;;20.30;43.90;;;;;;5090786;28;20382;-68
2021/05/21 11:32:18;;;;;;;6.70;2.03;;;20.20;44.30;;;;;;5099057;28;20415;-68
2021/05/21 11:34:45;;;;;;;5.27;1.60;;;20.30;45.00;;;;;;5110596;28;20416;-68
2021/05/21 11:37:15;;;;;;;7.93;2.93;;;20.40;44.90;;;;;;5111164;28;20400;-68
2021/05/21 11:39:43;;;;;;;14.53;2.57;;;20.30;44.30;;;;;;5110976;28;20427;-68
2021/05/21 11:42:09;;;;;;;8.77;2.00;;;20.10;45.30;;;;;;5111204;28;20444;-68
2021/05/21 11:44:34;;;;;;;3.60;1.90;;;20.00;45.20;;;;;;5108030;28;20783;-68
2021/05/21 11:47:04;;;;;;;6.50;2.40;;;20.00;45.10;;;;;;5090657;28;20293;-68
2021/05/21 11:49:30;;;;;;;7.43;2.50;;;19.90;44.90;;;;;;5091161;28;20174;-68
2021/05/21 11:54:40;;;;;;;8.37;2.20;;;19.80;47.20;;;;;;5111254;27;20502;-69
2021/05/21 11:57:06;;;;;;;4.80;1.77;;;19.80;44.90;;;;;;5111140;28;20482;-69
2021/05/21 11:59:32;;;;;;;7.67;2.27;;;19.80;44.20;;;;;;5111102;28;21004;-69
2021/05/21 12:01:59;;;;;;;4.17;2.10;;;19.80;45.00;;;;;;5105311;28;20185;-69
2021/05/21 12:04:34;;;;;;;4.30;2.00;;;19.70;44.90;;;;;;5101082;28;20566;-69
2021/05/21 12:06:59;;;;;;;4.63;2.00;;;19.60;45.20;;;;;;5111062;28;20448;-69
2021/05/21 12:09:25;;;;;;;5.87;2.07;;;19.40;45.00;;;;;;5111253;28;20392;-69
2021/05/21 12:11:53;;;;;;;4.30;1.93;;;19.40;46.00;;;;;;5110756;28;20207;-69
2021/05/21 12:14:22;;;;;;;6.37;1.80;;;19.30;45.90;;;;;;5110675;28;20734;-69
2021/05/21 12:16:50;;;;;;;4.63;1.60;;;19.30;46.20;;;;;;5111072;28;20819;-69
2021/05/21 12:19:18;;;;;;;6.03;1.83;;;19.30;46.70;;;;;;5102319;28;20440;-69
2021/05/21 12:21:47;;;;;;;5.37;2.03;;;19.30;45.50;;;;;;5090302;28;20389;-69
2021/05/21 12:24:15;;;;;;;3.63;1.53;;;19.40;46.00;;;;;;5090270;28;20397;-69
2021/05/21 12:26:42;;;;;;;5.57;1.77;;;19.50;46.50;;;;;;5090168;28;20515;-69
2021/05/21 12:29:10;;;;;;;6.83;2.10;;;19.70;46.80;;;;;;5090099;28;20393;-69
2021/05/21 12:31:44;;;;;;;4.37;1.57;;;19.70;46.80;;;;;;5093014;28;20891;-69
2021/05/21 12:34:09;;;;;;;3.90;1.57;;;19.80;46.50;;;;;;5099323;28;20441;-69
2021/05/21 12:36:35;;;;;;;5.27;1.60;;;19.90;45.70;;;;;;5101336;28;20775;-69
2021/05/21 12:39:05;;;;;;;5.97;1.93;;;20.00;46.90;;;;;;5110461;28;20615;-69
2021/05/21 12:41:34;;;;;;;3.20;1.97;;;20.10;46.10;;;;;;5107690;28;20253;-69
2021/05/21 12:46:52;;;;;;;5.77;1.73;;;20.20;45.20;;;;;;5131996;27;20584;-69
2021/05/21 12:49:28;;;;;;;5.97;1.60;;;20.30;45.70;;;;;;5131502;28;20429;-69
2021/05/21 12:51:56;;;;;;;12.13;2.63;;;20.20;46.70;;;;;;5131365;28;20403;-69
2021/05/21 13:02:20;;;;;;;9.27;2.63;;;19.80;46.30;;;;;;5111713;27;20499;-68
2021/05/21 13:05:09;;;;;;;6.30;2.30;;;19.70;45.80;;;;;;5110664;28;20564;-68
2021/05/21 13:07:37;;;;;;;6.00;1.87;;;19.70;47.10;;;;;;5096231;28;20422;-68
2021/05/21 13:10:08;;;;;;;5.30;2.13;;;19.60;46.50;;;;;;5104071;28;20431;-68
2021/05/21 13:12:43;;;;;;;5.20;2.27;;;19.50;47.00;;;;;;5090267;28;20408;-68
2021/05/21 13:15:10;;;;;;;3.07;1.33;;;19.40;47.10;;;;;;5091681;28;20458;-68
2021/05/21 13:17:39;;;;;;;4.70;1.67;;;19.30;46.90;;;;;;5090639;28;20385;-68
2021/05/21 13:20:05;;;;;;;3.50;1.77;;;19.20;45.40;;;;;;5090223;28;20432;-68
2021/05/21 13:22:32;;;;;;;4.67;1.97;;;19.20;46.30;;;;;;5102857;28;20977;-68
2021/05/21 13:25:01;;;;;;;9.37;2.30;;;19.20;45.40;;;;;;5110829;28;20475;-68
2021/05/21 13:27:30;;;;;;;3.17;1.60;;;19.30;46.60;;;;;;5100224;28;20407;-68
2021/05/21 13:29:56;;;;;;;4.63;1.60;;;19.30;48.60;;;;;;5091521;28;20389;-68
2021/05/21 13:32:22;;;;;;;5.33;1.60;;;19.40;49.10;;;;;;5099630;28;20419;-68
2021/05/21 13:34:48;;;;;;;6.60;2.00;;;19.40;49.60;;;;;;5110599;28;20407;-68
2021/05/21 13:37:14;;;;;;;5.87;2.17;;;19.30;48.70;;;;;;5110324;28;20388;-68
2021/05/21 13:39:40;;;;;;;3.10;1.80;;;19.30;49.40;;;;;;5110468;28;20172;-68
2021/05/21 13:42:06;;;;;;;8.73;2.20;;;19.30;49.00;;;;;;5110048;28;20658;-68
2021/05/21 13:44:32;;;;;;;2.40;1.37;;;19.30;47.70;;;;;;5100605;28;20672;-68
2021/05/21 13:46:58;;;;;;;4.07;1.70;;;19.30;48.30;;;;;;5090068;28;20399;-68
2021/05/21 13:49:25;;;;;;;4.00;1.57;;;19.40;47.30;;;;;;5089962;28;20754;-68
2021/05/21 13:51:55;;;;;;;4.70;1.47;;;19.30;47.30;;;;;;5090029;28;20243;-68
2021/05/21 13:54:21;;;;;;;7.37;2.30;;;19.20;48.60;;;;;;5089526;28;20811;-68
2021/05/21 13:56:47;;;;;;;4.70;1.90;;;19.10;48.30;;;;;;5089325;28;20766;-69